createdAt,value
2023-01-13T00:00:27.995Z,50.61
2023-01-13T00:02:56.206Z,50.63
2023-01-13T00:05:23.873Z,50.33
2023-01-13T00:07:52.992Z,50.38
2023-01-13T00:10:20.644Z,50.44
2023-01-13T00:12:48.283Z,50.56
2023-01-13T00:15:15.986Z,50.48
2023-01-13T00:17:43.670Z,50.57
2023-01-13T00:20:11.871Z,50.51
2023-01-13T00:22:39.496Z,50.35
2023-01-13T00:25:08.865Z,50.53
2023-01-13T00:27:36.985Z,50.32
2023-01-13T00:30:05.859Z,50.44
2023-01-13T00:32:33.544Z,50.19
2023-01-13T00:35:01.239Z,50.32
2023-01-13T00:37:28.814Z,50.36
2023-01-13T00:39:57.825Z,50.30
2023-01-13T00:42:44.515Z,50.17
2023-01-13T00:45:12.272Z,50.32
2023-01-13T00:47:39.885Z,50.34
2023-01-13T00:50:07.620Z,50.29
2023-01-13T00:52:35.247Z,50.11
2023-01-13T00:55:02.937Z,50.12
2023-01-13T00:57:32.301Z,50.13
2023-01-13T01:00:00.042Z,50.16
2023-01-13T01:02:27.799Z,50.01
2023-01-13T01:04:55.420Z,50.07
2023-01-13T01:07:23.321Z,50.03
2023-01-13T01:09:51.227Z,50.03
2023-01-13T01:12:18.918Z,50.01
2023-01-13T01:14:47.973Z,50.13
2023-01-13T01:17:15.633Z,50.06
2023-01-13T01:19:43.336Z,50.08
2023-01-13T01:22:10.941Z,50.06
2023-01-13T01:24:38.581Z,50.09
2023-01-13T01:27:06.375Z,49.97
2023-01-13T01:29:34.068Z,49.96
2023-01-13T01:32:03.429Z,49.96
2023-01-13T01:34:31.363Z,49.97
2023-01-13T01:36:58.990Z,50.06
2023-01-13T01:39:26.690Z,49.97
2023-01-13T01:42:11.802Z,50.14
2023-01-13T01:44:54.634Z,50.17
2023-01-13T01:47:23.689Z,50.08
2023-01-13T01:49:51.448Z,50.10
2023-01-13T01:52:19.806Z,50.12
2023-01-13T01:54:48.109Z,50.13
2023-01-13T01:57:16.465Z,50.11
2023-01-13T01:59:44.245Z,50.32
2023-01-13T02:02:12.019Z,50.28
2023-01-13T02:04:41.616Z,50.20
2023-01-13T02:07:09.291Z,50.15
2023-01-13T02:09:36.974Z,49.96
2023-01-13T02:12:22.234Z,50.00
2023-01-13T02:14:49.904Z,49.92
2023-01-13T02:17:20.466Z,50.01
2023-01-13T02:20:04.803Z,50.10
2023-01-13T02:22:41.339Z,50.15
2023-01-13T02:25:22.614Z,50.34
2023-01-13T02:28:08.323Z,50.18
2023-01-13T02:30:58.615Z,50.24
2023-01-13T02:33:29.739Z,50.23
2023-01-13T02:35:58.519Z,50.14
2023-01-13T02:38:26.446Z,50.31
2023-01-13T02:40:56.845Z,50.21
2023-01-13T02:43:42.412Z,50.15
2023-01-13T02:46:12.128Z,50.10
2023-01-13T02:48:39.755Z,50.19
2023-01-13T02:51:08.507Z,50.13
2023-01-13T02:53:37.115Z,50.15
2023-01-13T02:56:04.850Z,50.12
2023-01-13T02:58:32.843Z,50.09
2023-01-13T03:01:00.600Z,50.25
2023-01-13T03:03:29.762Z,50.25
2023-01-13T03:06:00.292Z,50.32
2023-01-13T03:08:30.935Z,50.37
2023-01-13T03:11:02.559Z,50.49
2023-01-13T03:13:50.814Z,50.16
2023-01-13T03:16:20.044Z,50.21
2023-01-13T03:18:50.806Z,50.10
2023-01-13T03:21:20.897Z,50.05
2023-01-13T03:23:50.155Z,50.18
2023-01-13T03:26:18.305Z,50.05
2023-01-13T03:28:46.771Z,50.18
2023-01-13T03:31:15.095Z,50.07
2023-01-13T03:33:45.362Z,50.02
2023-01-13T03:36:14.729Z,50.03
2023-01-13T03:38:43.373Z,50.00
2023-01-13T03:41:11.693Z,50.04
2023-01-13T03:43:57.230Z,50.05
2023-01-13T03:46:26.848Z,50.12
2023-01-13T03:48:54.926Z,50.13
2023-01-13T03:51:23.849Z,49.95
2023-01-13T03:53:52.491Z,50.06
2023-01-13T03:56:22.559Z,49.89
2023-01-13T03:58:50.151Z,50.11
2023-01-13T04:01:18.278Z,50.02
2023-01-13T04:03:47.537Z,50.00
2023-01-13T04:06:15.788Z,49.95
2023-01-13T04:08:45.719Z,49.90
2023-01-13T04:11:13.801Z,49.94
2023-01-13T04:13:41.823Z,49.89
2023-01-13T04:16:09.491Z,49.85
2023-01-13T04:18:37.805Z,49.89
2023-01-13T04:21:05.761Z,49.90
2023-01-13T04:23:33.680Z,50.10
2023-01-13T04:26:02.700Z,49.90
2023-01-13T04:28:30.316Z,49.97
2023-01-13T04:30:57.992Z,49.97
2023-01-13T04:33:25.652Z,49.94
2023-01-13T04:35:53.941Z,50.04
2023-01-13T04:38:21.849Z,49.86
2023-01-13T04:40:49.534Z,49.95
2023-01-13T04:43:18.556Z,50.08
2023-01-13T04:45:46.168Z,49.93
2023-01-13T04:48:13.876Z,49.95
2023-01-13T04:50:41.504Z,49.99
2023-01-13T04:53:09.224Z,49.96
2023-01-13T04:55:36.852Z,50.01
2023-01-13T04:58:04.869Z,50.01
2023-01-13T05:00:33.906Z,50.01
2023-01-13T05:03:01.539Z,49.96
2023-01-13T05:05:29.255Z,50.03
2023-01-13T05:07:56.865Z,49.89
2023-01-13T05:10:24.496Z,49.91
2023-01-13T05:13:09.466Z,49.98
2023-01-13T05:15:56.099Z,49.91
2023-01-13T05:18:23.774Z,49.96
2023-01-13T05:20:51.448Z,49.90
2023-01-13T05:23:36.405Z,49.91
2023-01-13T05:26:04.009Z,49.87
2023-01-13T05:28:34.864Z,50.10
2023-01-13T05:31:04.045Z,49.97
2023-01-13T05:33:32.406Z,49.86
2023-01-13T05:36:02.455Z,50.07
2023-01-13T05:38:30.133Z,49.81
2023-01-13T05:41:17.398Z,49.95
2023-01-13T05:43:44.998Z,49.99
2023-01-13T05:46:14.876Z,49.87
2023-01-13T05:48:43.066Z,49.91
2023-01-13T05:51:11.293Z,49.97
2023-01-13T05:53:40.643Z,49.97
2023-01-13T05:56:08.713Z,50.06
2023-01-13T05:58:36.356Z,49.94
2023-01-13T06:01:07.453Z,49.97
2023-01-13T06:03:36.547Z,50.09
2023-01-13T06:06:04.515Z,50.09
2023-01-13T06:08:32.249Z,50.11
2023-01-13T06:10:59.935Z,50.17
2023-01-13T06:13:27.535Z,50.17
2023-01-13T06:15:56.780Z,50.14
2023-01-13T06:18:24.538Z,50.27
2023-01-13T06:20:53.695Z,50.14
2023-01-13T06:23:21.362Z,50.10
2023-01-13T06:25:50.995Z,49.88
2023-01-13T06:28:18.648Z,50.04
2023-01-13T06:30:46.646Z,50.00
2023-01-13T06:33:14.990Z,49.99
2023-01-13T06:35:42.840Z,50.01
2023-01-13T06:38:12.089Z,50.06
2023-01-13T06:40:39.940Z,50.00
2023-01-13T06:43:16.680Z,50.07
2023-01-13T06:45:45.180Z,50.01
2023-01-13T06:48:12.866Z,50.21
2023-01-13T06:50:42.125Z,50.22
2023-01-13T06:53:10.042Z,50.21
2023-01-13T06:55:39.100Z,50.26
2023-01-13T06:58:06.690Z,50.18
2023-01-13T07:00:35.590Z,50.08
2023-01-13T07:03:10.325Z,50.11
2023-01-13T07:05:38.002Z,50.14
2023-01-13T07:08:05.829Z,50.07
2023-01-13T07:10:33.470Z,50.05
2023-01-13T07:13:20.271Z,50.13
2023-01-13T07:15:57.341Z,50.12
2023-01-13T07:18:27.197Z,50.03
2023-01-13T07:20:55.546Z,50.11
2023-01-13T07:23:23.125Z,50.06
2023-01-13T07:25:50.749Z,49.99
2023-01-13T07:28:19.915Z,49.95
2023-01-13T07:30:47.519Z,49.96
2023-01-13T07:33:15.124Z,49.97
2023-01-13T07:35:42.826Z,49.94
2023-01-13T07:38:10.647Z,49.96
2023-01-13T07:40:38.241Z,49.96
2023-01-13T07:43:37.936Z,50.09
2023-01-13T07:46:07.131Z,50.08
2023-01-13T07:48:35.262Z,50.01
2023-01-13T07:51:03.238Z,49.93
2023-01-13T07:53:30.810Z,50.13
2023-01-13T07:55:58.470Z,50.06
2023-01-13T07:58:26.130Z,50.08
2023-01-13T08:00:53.886Z,50.15
2023-01-13T08:03:23.024Z,50.19
2023-01-13T08:05:50.794Z,50.12
2023-01-13T08:08:18.469Z,50.11
2023-01-13T08:10:46.070Z,50.06
2023-01-13T08:13:20.056Z,49.89
2023-01-13T08:15:48.471Z,50.01
2023-01-13T08:18:17.599Z,49.93
2023-01-13T08:20:46.616Z,50.09
2023-01-13T08:23:14.310Z,50.09
2023-01-13T08:25:42.093Z,50.21
2023-01-13T08:28:09.927Z,50.10
2023-01-13T08:30:37.634Z,50.09
2023-01-13T08:33:07.199Z,50.12
2023-01-13T08:35:34.819Z,50.01
2023-01-13T08:38:03.769Z,49.86
2023-01-13T08:40:31.453Z,50.05
2023-01-13T08:42:59.112Z,49.99
2023-01-13T08:45:26.800Z,50.06
2023-01-13T08:47:54.395Z,49.83
2023-01-13T08:50:22.086Z,50.04
2023-01-13T08:52:50.214Z,49.85
2023-01-13T08:55:19.212Z,49.93
2023-01-13T08:57:46.835Z,50.04
2023-01-13T09:00:14.772Z,49.95
2023-01-13T09:02:42.626Z,49.97
2023-01-13T09:05:10.706Z,49.95
2023-01-13T09:07:38.604Z,49.84
2023-01-13T09:10:06.655Z,49.88
2023-01-13T09:12:53.432Z,49.78
2023-01-13T09:15:21.858Z,49.82
2023-01-13T09:17:49.579Z,50.05
2023-01-13T09:20:17.209Z,49.93
2023-01-13T09:22:44.755Z,49.94
2023-01-13T09:25:13.611Z,49.85
2023-01-13T09:27:42.801Z,49.95
2023-01-13T09:30:11.102Z,50.01
2023-01-13T09:32:39.350Z,49.86
2023-01-13T09:35:06.468Z,49.93
2023-01-13T09:37:35.217Z,49.86
2023-01-13T09:40:02.887Z,49.80
2023-01-13T09:42:50.973Z,49.94
2023-01-13T09:45:20.770Z,49.89
2023-01-13T09:47:51.319Z,49.82
2023-01-13T09:50:23.648Z,49.92
2023-01-13T09:52:51.428Z,49.99
2023-01-13T09:55:19.695Z,49.94
2023-01-13T09:57:47.401Z,49.85
2023-01-13T10:00:16.268Z,49.97
2023-01-13T10:02:52.031Z,49.76
2023-01-13T10:05:21.052Z,49.85
2023-01-13T10:07:49.835Z,49.78
2023-01-13T10:10:19.008Z,49.71
2023-01-13T10:13:04.151Z,49.89
2023-01-13T10:15:31.750Z,49.86
2023-01-13T10:18:02.120Z,49.95
2023-01-13T10:20:30.268Z,49.73
2023-01-13T10:23:01.744Z,49.83
2023-01-13T10:25:31.610Z,49.91
2023-01-13T10:28:04.262Z,49.92
2023-01-13T10:30:34.651Z,49.84
2023-01-13T10:33:07.519Z,49.93
2023-01-13T10:35:51.992Z,49.93
2023-01-13T10:38:20.144Z,49.87
2023-01-13T10:40:53.141Z,49.94
2023-01-13T10:43:20.875Z,49.80
2023-01-13T10:46:01.833Z,49.81
2023-01-13T10:48:37.828Z,49.86
2023-01-13T10:51:12.372Z,49.69
2023-01-13T10:53:46.633Z,49.74
2023-01-13T10:56:16.836Z,49.62
2023-01-13T10:58:44.452Z,49.53
2023-01-13T11:01:18.325Z,49.51
2023-01-13T11:03:48.166Z,49.64
2023-01-13T11:06:20.793Z,49.60
2023-01-13T11:08:49.626Z,49.52
2023-01-13T11:11:27.450Z,49.18
2023-01-13T11:14:12.979Z,49.38
2023-01-13T11:16:47.345Z,49.20
2023-01-13T11:19:22.590Z,49.23
2023-01-13T11:21:51.209Z,49.35
2023-01-13T11:24:19.947Z,49.58
2023-01-13T11:26:49.091Z,49.34
2023-01-13T11:29:18.866Z,49.56
2023-01-13T11:31:47.486Z,49.60
2023-01-13T11:34:15.397Z,49.11
2023-01-13T11:36:46.066Z,48.93
2023-01-13T11:39:16.173Z,49.13
2023-01-13T11:41:44.394Z,49.24
2023-01-13T11:44:14.760Z,48.89
2023-01-13T11:46:42.503Z,49.24
2023-01-13T11:49:11.189Z,49.06
2023-01-13T11:51:39.507Z,49.03
2023-01-13T11:54:24.796Z,49.16
2023-01-13T11:57:02.013Z,49.04
2023-01-13T11:59:47.972Z,48.88
2023-01-13T12:02:18.531Z,48.73
2023-01-13T12:04:48.640Z,48.72
2023-01-13T12:07:22.089Z,48.95
2023-01-13T12:09:54.272Z,48.67
2023-01-13T12:12:27.901Z,48.36
2023-01-13T12:15:04.730Z,48.50
2023-01-13T12:17:34.193Z,48.83
2023-01-13T12:20:01.767Z,48.96
2023-01-13T12:22:30.135Z,48.94
2023-01-13T12:24:59.302Z,48.80
2023-01-13T12:27:32.741Z,48.77
2023-01-13T12:30:00.382Z,48.50
2023-01-13T12:32:29.813Z,48.84
2023-01-13T12:35:08.994Z,48.95
2023-01-13T12:37:38.302Z,49.02
2023-01-13T12:40:13.367Z,48.51
2023-01-13T12:43:00.044Z,48.31
2023-01-13T12:45:28.546Z,48.17
2023-01-13T12:47:57.549Z,48.25
2023-01-13T12:50:40.711Z,48.58
2023-01-13T12:53:26.840Z,48.58
2023-01-13T12:55:54.663Z,48.63
2023-01-13T12:58:27.201Z,48.67
2023-01-13T13:00:55.821Z,48.97
2023-01-13T13:03:33.479Z,48.89
2023-01-13T13:06:08.658Z,48.36
2023-01-13T13:08:54.160Z,48.35
2023-01-13T13:11:40.633Z,48.47
2023-01-13T13:14:13.417Z,48.53
2023-01-13T13:16:50.293Z,48.06
2023-01-13T13:19:36.642Z,48.02
2023-01-13T13:22:20.295Z,48.01
2023-01-13T13:25:02.744Z,48.35
2023-01-13T13:27:33.210Z,48.19
2023-01-13T13:30:02.462Z,47.89
2023-01-13T13:32:40.339Z,48.10
2023-01-13T13:35:21.270Z,48.18
2023-01-13T13:38:09.557Z,48.36
2023-01-13T13:40:58.076Z,47.88
2023-01-13T13:43:42.957Z,47.93
2023-01-13T13:46:43.173Z,47.65
2023-01-13T13:49:11.857Z,47.72
2023-01-13T13:51:41.746Z,47.74
2023-01-13T13:54:10.181Z,47.62
2023-01-13T13:56:39.333Z,47.88
2023-01-13T13:59:06.901Z,48.12
2023-01-13T14:01:37.765Z,47.92
2023-01-13T14:04:06.358Z,47.65
2023-01-13T14:06:33.977Z,47.69
2023-01-13T14:09:01.615Z,48.03
2023-01-13T14:11:29.896Z,47.63
2023-01-13T14:14:04.110Z,47.45
2023-01-13T14:16:32.005Z,47.45
2023-01-13T14:19:00.967Z,47.53
2023-01-13T14:21:28.924Z,47.57
2023-01-13T14:23:57.485Z,47.52
2023-01-13T14:26:25.440Z,47.75
2023-01-13T14:28:53.286Z,47.43
2023-01-13T14:31:20.978Z,47.50
2023-01-13T14:33:49.205Z,47.63
2023-01-13T14:36:19.429Z,47.64
2023-01-13T14:38:47.391Z,47.87
2023-01-13T14:41:19.300Z,47.68
2023-01-13T14:43:47.251Z,48.07
2023-01-13T14:46:15.266Z,48.05
2023-01-13T14:48:47.000Z,48.25
2023-01-13T14:51:15.212Z,48.04
2023-01-13T14:53:46.721Z,48.14
2023-01-13T14:56:32.865Z,47.90
2023-01-13T14:59:03.006Z,47.94
2023-01-13T15:01:30.999Z,47.74
2023-01-13T15:04:13.636Z,47.92
2023-01-13T15:06:41.205Z,47.34
2023-01-13T15:09:13.800Z,46.92
2023-01-13T15:11:41.780Z,47.05
2023-01-13T15:14:10.776Z,46.89
2023-01-13T15:16:38.612Z,47.05
2023-01-13T15:19:06.195Z,46.98
2023-01-13T15:21:33.777Z,47.13
2023-01-13T15:24:01.388Z,47.32
2023-01-13T15:26:30.645Z,47.30
2023-01-13T15:28:58.672Z,47.24
2023-01-13T15:31:26.333Z,46.71
2023-01-13T15:33:53.932Z,46.83
2023-01-13T15:36:23.419Z,46.88
2023-01-13T15:38:51.035Z,47.08
2023-01-13T15:41:38.744Z,46.79
2023-01-13T15:44:25.359Z,46.85
2023-01-13T15:46:53.152Z,47.15
2023-01-13T15:49:22.425Z,47.14
2023-01-13T15:51:50.071Z,47.15
2023-01-13T15:54:19.823Z,47.52
2023-01-13T15:56:47.496Z,47.60
2023-01-13T15:59:17.585Z,46.87
2023-01-13T16:01:45.215Z,46.57
2023-01-13T16:04:12.889Z,46.41
2023-01-13T16:06:40.502Z,46.64
2023-01-13T16:09:08.170Z,46.67
2023-01-13T16:11:35.863Z,46.53
2023-01-13T16:14:03.547Z,46.51
2023-01-13T16:16:32.694Z,46.72
2023-01-13T16:19:00.476Z,46.57
2023-01-13T16:21:28.046Z,46.77
2023-01-13T16:23:55.694Z,46.96
2023-01-13T16:26:23.764Z,47.03
2023-01-13T16:28:51.510Z,47.38
2023-01-13T16:31:19.892Z,47.12
2023-01-13T16:33:48.928Z,47.58
2023-01-13T16:36:16.888Z,46.67
2023-01-13T16:38:44.602Z,46.76
2023-01-13T16:41:12.226Z,46.71
2023-01-13T16:43:39.861Z,46.96
2023-01-13T16:46:20.614Z,46.80
2023-01-13T16:48:49.877Z,46.79
2023-01-13T16:51:17.578Z,46.76
2023-01-13T16:53:45.527Z,46.58
2023-01-13T16:56:20.042Z,46.54
2023-01-13T16:58:48.487Z,46.46
2023-01-13T17:01:20.286Z,46.98
2023-01-13T17:03:51.410Z,47.16
2023-01-13T17:06:19.703Z,47.38
2023-01-13T17:08:47.392Z,47.04
2023-01-13T17:11:15.080Z,46.46
2023-01-13T17:13:42.757Z,46.44
2023-01-13T17:16:15.483Z,46.53
2023-01-13T17:18:43.179Z,46.62
2023-01-13T17:21:12.316Z,46.43
2023-01-13T17:23:40.161Z,46.52
2023-01-13T17:26:07.837Z,46.53
2023-01-13T17:28:35.723Z,46.60
2023-01-13T17:31:03.663Z,46.63
2023-01-13T17:33:37.049Z,46.80
2023-01-13T17:36:05.947Z,46.60
2023-01-13T17:38:35.023Z,46.99
2023-01-13T17:41:03.662Z,47.12
2023-01-13T17:43:31.353Z,47.18
2023-01-13T17:45:59.049Z,47.13
2023-01-13T17:48:26.896Z,47.41
2023-01-13T17:50:54.486Z,47.44
2023-01-13T17:53:22.177Z,47.55
2023-01-13T17:55:52.028Z,47.37
2023-01-13T17:58:19.833Z,47.51
2023-01-13T18:00:47.541Z,47.03
2023-01-13T18:03:15.170Z,46.51
2023-01-13T18:05:44.067Z,46.50
2023-01-13T18:08:11.731Z,46.91
2023-01-13T18:10:39.366Z,46.67
2023-01-13T18:13:09.574Z,46.69
2023-01-13T18:15:37.444Z,46.67
2023-01-13T18:18:05.091Z,47.03
2023-01-13T18:20:50.341Z,47.19
2023-01-13T18:23:35.590Z,47.27
2023-01-13T18:26:33.272Z,47.16
2023-01-13T18:29:02.747Z,47.42
2023-01-13T18:31:30.395Z,47.41
2023-01-13T18:33:58.105Z,46.95
2023-01-13T18:36:25.845Z,47.22
2023-01-13T18:38:53.417Z,47.20
2023-01-13T18:41:38.330Z,47.17
2023-01-13T18:44:07.295Z,46.85
2023-01-13T18:46:34.899Z,46.73
2023-01-13T18:49:03.001Z,46.98
2023-01-13T18:51:30.591Z,47.33
2023-01-13T18:53:58.302Z,47.41
2023-01-13T18:56:26.032Z,47.23
2023-01-13T18:58:54.046Z,47.49
2023-01-13T19:01:25.564Z,47.34
2023-01-13T19:03:56.420Z,47.45
2023-01-13T19:06:25.657Z,47.16
2023-01-13T19:08:54.820Z,47.01
2023-01-13T19:11:22.489Z,46.79
2023-01-13T19:13:50.212Z,46.82
2023-01-13T19:16:18.181Z,47.26
2023-01-13T19:18:47.178Z,46.82
2023-01-13T19:21:14.904Z,46.48
2023-01-13T19:23:42.540Z,46.81
2023-01-13T19:26:10.626Z,47.12
2023-01-13T19:28:39.764Z,47.32
2023-01-13T19:31:07.772Z,47.36
2023-01-13T19:33:35.756Z,47.47
2023-01-13T19:36:04.839Z,47.30
2023-01-13T19:38:32.532Z,46.85
2023-01-13T19:41:00.621Z,47.00
2023-01-13T19:43:42.404Z,46.54
2023-01-13T19:46:09.989Z,46.83
2023-01-13T19:48:37.601Z,46.68
2023-01-13T19:51:06.956Z,46.43
2023-01-13T19:53:34.550Z,46.62
2023-01-13T19:56:02.297Z,46.45
2023-01-13T19:58:31.524Z,46.28
2023-01-13T20:00:59.135Z,46.47
2023-01-13T20:03:31.076Z,46.61
2023-01-13T20:06:07.280Z,47.00
2023-01-13T20:08:34.881Z,46.96
2023-01-13T20:11:16.416Z,47.03
2023-01-13T20:13:44.136Z,46.92
2023-01-13T20:16:11.920Z,46.97
2023-01-13T20:18:39.554Z,46.61
2023-01-13T20:21:08.820Z,46.67
2023-01-13T20:23:36.393Z,46.33
2023-01-13T20:26:04.006Z,46.11
2023-01-13T20:28:36.922Z,46.23
2023-01-13T20:31:06.059Z,46.33
2023-01-13T20:33:33.943Z,46.16
2023-01-13T20:36:01.599Z,46.23
2023-01-13T20:38:36.893Z,46.28
2023-01-13T20:41:25.756Z,46.27
2023-01-13T20:43:52.697Z,46.53
2023-01-13T20:46:20.501Z,46.62
2023-01-13T20:48:48.167Z,46.38
2023-01-13T20:51:15.771Z,46.79
2023-01-13T20:53:44.715Z,47.04
2023-01-13T20:56:14.431Z,46.71
2023-01-13T20:58:42.270Z,46.60
2023-01-13T21:01:09.912Z,46.64
2023-01-13T21:03:37.588Z,46.59
2023-01-13T21:06:05.337Z,46.59
2023-01-13T21:08:32.952Z,46.66
2023-01-13T21:11:04.407Z,46.61
2023-01-13T21:13:49.736Z,46.37
2023-01-13T21:16:17.468Z,46.70
2023-01-13T21:19:02.332Z,46.37
2023-01-13T21:21:29.954Z,46.68
2023-01-13T21:23:57.624Z,46.76
2023-01-13T21:26:26.646Z,46.70
2023-01-13T21:28:56.756Z,47.08
2023-01-13T21:31:26.798Z,47.14
2023-01-13T21:33:54.678Z,46.79
2023-01-13T21:36:22.673Z,46.55
2023-01-13T21:38:51.852Z,46.75
2023-01-13T21:41:40.185Z,46.62
2023-01-13T21:44:27.177Z,46.56
2023-01-13T21:47:12.687Z,46.63
2023-01-13T21:49:44.156Z,46.32
2023-01-13T21:52:12.354Z,46.16
2023-01-13T21:55:00.867Z,46.49
2023-01-13T21:57:28.759Z,46.40
2023-01-13T21:59:57.950Z,46.64
2023-01-13T22:02:33.341Z,46.48
2023-01-13T22:05:01.267Z,46.56
2023-01-13T22:07:29.009Z,46.74
2023-01-13T22:09:56.721Z,46.73
2023-01-13T22:12:24.898Z,46.52
2023-01-13T22:14:52.583Z,46.55
2023-01-13T22:17:21.723Z,46.36
2023-01-13T22:19:49.585Z,46.49
2023-01-13T22:22:18.745Z,46.66
2023-01-13T22:24:48.239Z,46.49
2023-01-13T22:27:16.288Z,46.26
2023-01-13T22:29:44.034Z,46.26
2023-01-13T22:32:11.717Z,46.33
2023-01-13T22:34:40.668Z,46.41
2023-01-13T22:37:08.235Z,46.30
2023-01-13T22:39:35.895Z,46.56
2023-01-13T22:42:03.639Z,46.42
2023-01-13T22:44:31.262Z,46.48
2023-01-13T22:46:58.824Z,46.52
2023-01-13T22:49:26.390Z,46.63
2023-01-13T22:51:55.427Z,46.52
2023-01-13T22:54:23.128Z,46.61
2023-01-13T22:56:50.729Z,46.56
2023-01-13T22:59:18.596Z,46.58
2023-01-13T23:01:46.185Z,46.93
2023-01-13T23:04:14.074Z,46.85
2023-01-13T23:06:41.698Z,46.67
2023-01-13T23:09:10.755Z,47.16
2023-01-13T23:11:38.409Z,46.73
2023-01-13T23:14:06.462Z,46.69
2023-01-13T23:16:34.504Z,46.79
2023-01-13T23:19:02.115Z,46.93
2023-01-13T23:21:30.085Z,47.02
2023-01-13T23:23:58.784Z,46.93
2023-01-13T23:26:27.952Z,47.00
2023-01-13T23:28:58.811Z,46.54
2023-01-13T23:31:26.433Z,46.60
2023-01-13T23:33:54.016Z,46.56
2023-01-13T23:36:22.172Z,46.66
2023-01-13T23:38:49.780Z,46.85
2023-01-13T23:41:18.265Z,46.89
2023-01-13T23:43:51.860Z,46.95
2023-01-13T23:46:20.223Z,46.89
2023-01-13T23:48:47.875Z,46.76
2023-01-13T23:51:15.663Z,46.76
2023-01-13T23:53:43.728Z,46.71
2023-01-13T23:56:12.117Z,46.67
2023-01-13T23:58:39.728Z,46.70
